createdAt,value
2023-02-24T00:03:06.217Z,7.73
2023-02-24T00:06:12.254Z,10.20
2023-02-24T00:09:19.907Z,8.77
2023-02-24T00:12:22.444Z,8.83
2023-02-24T00:15:24.452Z,7.60
2023-02-24T00:18:26.340Z,8.17
2023-02-24T00:21:28.895Z,8.83
2023-02-24T00:24:31.871Z,7.17
2023-02-24T00:27:33.932Z,7.70
2023-02-24T00:30:35.773Z,11.40
2023-02-24T00:33:39.603Z,9.43
2023-02-24T00:36:42.716Z,8.00
2023-02-24T00:39:44.610Z,9.57
2023-02-24T00:42:48.758Z,8.37
2023-02-24T00:45:52.696Z,8.60
2023-02-24T00:48:55.481Z,6.77
2023-02-24T00:51:57.476Z,10.37
2023-02-24T00:54:59.376Z,6.43
2023-02-24T00:58:01.502Z,8.03
2023-02-24T01:01:05.375Z,11.30
2023-02-24T01:04:11.754Z,6.67
2023-02-24T01:07:14.343Z,14.03
2023-02-24T01:10:18.593Z,8.73
2023-02-24T01:13:20.552Z,6.90
2023-02-24T01:16:22.679Z,8.50
2023-02-24T01:19:31.682Z,9.17
2023-02-24T01:22:34.392Z,12.43
2023-02-24T01:25:36.253Z,7.70
2023-02-24T01:28:38.152Z,6.97
2023-02-24T01:31:43.029Z,8.40
2023-02-24T01:34:46.200Z,8.53
2023-02-24T01:37:48.233Z,8.03
2023-02-24T01:40:58.676Z,10.83
2023-02-24T01:44:06.189Z,11.17
2023-02-24T01:47:12.644Z,9.70
2023-02-24T01:50:16.480Z,6.53
2023-02-24T01:53:20.140Z,7.00
2023-02-24T01:56:21.991Z,9.87
2023-02-24T01:59:28.256Z,6.57
2023-02-24T02:02:30.342Z,5.33
2023-02-24T02:05:32.336Z,10.67
2023-02-24T02:08:38.440Z,7.87
2023-02-24T02:11:40.837Z,8.17
2023-02-24T02:14:48.365Z,9.83
2023-02-24T02:18:25.485Z,9.57
2023-02-24T02:21:49.535Z,7.40
2023-02-24T02:25:16.947Z,7.33
2023-02-24T02:28:46.935Z,10.00
2023-02-24T02:32:32.462Z,8.13
2023-02-24T02:35:48.564Z,8.53
2023-02-24T02:39:01.016Z,9.17
2023-02-24T02:42:12.921Z,7.60
2023-02-24T02:45:45.727Z,5.67
2023-02-24T02:48:52.514Z,9.77
2023-02-24T02:52:00.001Z,11.30
2023-02-24T02:55:12.229Z,9.50
2023-02-24T02:58:18.291Z,8.10
2023-02-24T03:01:24.309Z,6.60
2023-02-24T03:04:27.050Z,8.50
2023-02-24T03:07:35.329Z,6.50
2023-02-24T03:10:37.797Z,10.37
2023-02-24T03:13:42.122Z,11.33
2023-02-24T03:16:46.553Z,7.47
2023-02-24T03:19:54.553Z,7.37
2023-02-24T03:23:01.875Z,7.37
2023-02-24T03:26:09.863Z,8.67
2023-02-24T03:29:24.934Z,11.00
2023-02-24T03:32:33.890Z,7.70
2023-02-24T03:35:42.173Z,5.97
2023-02-24T03:38:44.291Z,7.93
2023-02-24T03:41:54.375Z,7.27
2023-02-24T03:44:58.662Z,8.23
2023-02-24T03:48:03.375Z,6.93
2023-02-24T03:51:05.512Z,5.57
2023-02-24T03:54:37.831Z,9.20
2023-02-24T03:58:19.122Z,10.17
2023-02-24T04:01:33.114Z,7.57
2023-02-24T04:04:44.261Z,9.57
2023-02-24T04:07:55.372Z,6.00
2023-02-24T04:11:14.798Z,11.03
2023-02-24T04:14:25.105Z,6.97
2023-02-24T04:17:30.792Z,11.73
2023-02-24T04:20:35.076Z,7.37
2023-02-24T04:23:40.811Z,7.63
2023-02-24T04:26:45.805Z,10.47
2023-02-24T04:29:52.622Z,10.80
2023-02-24T04:32:56.876Z,7.00
2023-02-24T04:36:00.556Z,10.33
2023-02-24T04:39:02.514Z,6.17
2023-02-24T04:42:06.137Z,9.87
2023-02-24T04:45:10.289Z,9.23
2023-02-24T04:48:15.257Z,10.73
2023-02-24T04:51:17.325Z,9.87
2023-02-24T04:54:20.889Z,7.13
2023-02-24T04:57:22.720Z,6.30
2023-02-24T05:00:26.807Z,6.60
2023-02-24T05:03:30.268Z,5.53
2023-02-24T05:06:33.039Z,7.27
2023-02-24T05:09:34.961Z,11.30
2023-02-24T05:12:41.094Z,11.97
2023-02-24T05:15:44.921Z,6.17
2023-02-24T05:18:46.900Z,10.03
2023-02-24T05:21:49.785Z,8.73
2023-02-24T05:24:51.685Z,6.57
2023-02-24T05:27:53.848Z,9.53
2023-02-24T05:30:56.701Z,7.27
2023-02-24T05:34:01.711Z,7.10
2023-02-24T05:37:10.938Z,7.07
2023-02-24T05:40:14.980Z,7.53
2023-02-24T05:43:19.769Z,5.77
2023-02-24T05:46:28.573Z,7.20
2023-02-24T05:49:34.132Z,7.27
2023-02-24T05:52:37.415Z,9.17
2023-02-24T05:55:39.430Z,6.47
2023-02-24T05:58:45.254Z,5.43
2023-02-24T06:01:48.457Z,7.40
2023-02-24T06:04:54.321Z,5.43
2023-02-24T06:08:12.209Z,9.20
2023-02-24T06:11:14.044Z,5.43
2023-02-24T06:14:16.728Z,8.33
2023-02-24T06:17:20.030Z,7.13
2023-02-24T06:20:27.530Z,6.00
2023-02-24T06:23:29.544Z,7.73
2023-02-24T06:26:34.650Z,8.70
2023-02-24T06:29:38.052Z,6.77
2023-02-24T06:32:40.555Z,8.07
2023-02-24T06:35:42.749Z,8.40
2023-02-24T06:38:45.069Z,5.00
2023-02-24T06:41:52.061Z,5.20
2023-02-24T06:44:55.152Z,5.73
2023-02-24T06:47:58.423Z,6.37
2023-02-24T06:51:06.164Z,7.33
2023-02-24T06:54:08.035Z,6.70
2023-02-24T06:57:11.567Z,7.20
2023-02-24T07:00:17.506Z,5.70
2023-02-24T07:03:20.936Z,7.03
2023-02-24T07:06:26.176Z,7.07
2023-02-24T07:09:28.366Z,5.17
2023-02-24T07:12:30.677Z,8.77
2023-02-24T07:15:38.261Z,5.67
2023-02-24T07:18:41.917Z,7.27
2023-02-24T07:21:50.342Z,6.53
2023-02-24T07:25:00.754Z,6.57
2023-02-24T07:28:03.008Z,5.90
2023-02-24T07:31:10.042Z,6.97
2023-02-24T07:34:15.283Z,7.10
2023-02-24T07:37:18.148Z,6.93
2023-02-24T07:40:22.720Z,8.53
2023-02-24T07:43:24.934Z,10.50
2023-02-24T07:46:31.164Z,8.20
2023-02-24T07:49:33.784Z,8.80
2023-02-24T07:52:36.942Z,10.60
2023-02-24T07:55:38.859Z,8.97
2023-02-24T07:58:44.766Z,8.07
2023-02-24T08:01:55.965Z,5.97
2023-02-24T08:04:58.742Z,6.20
2023-02-24T08:08:01.688Z,5.97
2023-02-24T08:11:07.752Z,8.10
2023-02-24T08:14:14.063Z,11.60
2023-02-24T08:17:20.152Z,7.90
2023-02-24T08:20:22.474Z,9.37
2023-02-24T08:23:24.907Z,11.13
2023-02-24T08:26:30.918Z,10.17
2023-02-24T08:29:58.967Z,8.73
2023-02-24T08:33:00.798Z,9.27
2023-02-24T08:36:03.026Z,8.57
2023-02-24T08:39:05.054Z,9.63
2023-02-24T08:42:08.097Z,10.13
2023-02-24T08:45:15.705Z,8.03
2023-02-24T08:48:27.692Z,7.20
2023-02-24T08:51:31.058Z,7.73
2023-02-24T08:54:34.007Z,9.90
2023-02-24T08:57:36.414Z,9.17
2023-02-24T09:01:04.673Z,8.73
2023-02-24T09:04:19.228Z,8.97
2023-02-24T09:07:30.146Z,6.43
2023-02-24T09:10:34.021Z,8.60
2023-02-24T09:13:36.803Z,9.70
2023-02-24T09:16:52.928Z,7.40
2023-02-24T09:20:13.852Z,6.00
2023-02-24T09:23:20.819Z,10.87
2023-02-24T09:26:23.012Z,7.67
2023-02-24T09:29:34.068Z,9.17
2023-02-24T09:32:36.212Z,7.43
2023-02-24T09:35:42.058Z,9.97
2023-02-24T09:39:01.475Z,8.13
2023-02-24T09:42:09.553Z,7.80
2023-02-24T09:45:33.607Z,9.83
2023-02-24T09:48:44.917Z,6.57
2023-02-24T09:52:00.883Z,7.20
2023-02-24T09:55:21.479Z,8.60
2023-02-24T09:58:50.903Z,8.40
2023-02-24T10:02:10.517Z,8.60
2023-02-24T10:05:28.314Z,7.67
2023-02-24T10:08:35.645Z,8.90
2023-02-24T10:11:40.845Z,8.37
2023-02-24T10:15:17.014Z,7.03
2023-02-24T10:18:33.253Z,8.33
2023-02-24T10:21:50.175Z,10.20
2023-02-24T10:25:11.357Z,10.03
2023-02-24T10:29:00.327Z,7.40
2023-02-24T10:32:25.197Z,11.47
2023-02-24T10:35:34.049Z,11.30
2023-02-24T10:38:37.645Z,11.40
2023-02-24T10:41:57.749Z,7.77
2023-02-24T10:45:18.875Z,11.53
2023-02-24T10:48:40.700Z,7.13
2023-02-24T10:51:49.218Z,9.43
2023-02-24T10:55:24.863Z,11.97
2023-02-24T10:58:53.863Z,9.23
2023-02-24T11:02:06.893Z,9.47
2023-02-24T11:05:38.983Z,6.50
2023-02-24T11:08:54.595Z,10.20
2023-02-24T11:12:21.482Z,7.37
2023-02-24T11:15:48.324Z,11.20
2023-02-24T11:18:52.770Z,9.50
2023-02-24T11:21:56.325Z,9.60
2023-02-24T11:25:07.915Z,8.00
2023-02-24T11:29:04.512Z,8.07
2023-02-24T11:32:09.214Z,9.70
2023-02-24T11:35:18.622Z,8.00
2023-02-24T11:38:49.385Z,10.00
2023-02-24T11:41:56.380Z,7.40
2023-02-24T11:45:13.855Z,7.83
2023-02-24T11:48:41.600Z,10.63
2023-02-24T11:51:44.956Z,8.37
2023-02-24T11:54:53.553Z,7.80
2023-02-24T11:57:57.396Z,8.47
2023-02-24T12:01:07.283Z,7.57
2023-02-24T12:04:28.355Z,7.87
2023-02-24T12:07:51.154Z,9.57
2023-02-24T12:11:08.298Z,6.63
2023-02-24T12:14:34.839Z,5.63
2023-02-24T12:18:15.709Z,7.47
2023-02-24T12:21:30.840Z,7.53
2023-02-24T12:24:36.556Z,8.00
2023-02-24T12:27:46.667Z,7.93
2023-02-24T12:30:51.454Z,6.77
2023-02-24T12:34:36.648Z,6.33
2023-02-24T12:37:48.826Z,6.00
2023-02-24T12:41:09.374Z,10.70
2023-02-24T12:44:51.196Z,7.70
2023-02-24T12:48:20.957Z,8.60
2023-02-24T12:51:51.801Z,10.23
2023-02-24T12:54:55.564Z,8.73
2023-02-24T12:58:13.553Z,8.33
2023-02-24T13:01:35.623Z,9.63
2023-02-24T13:05:02.171Z,10.27
2023-02-24T13:08:28.871Z,9.93
2023-02-24T13:11:54.816Z,9.97
2023-02-24T13:14:59.513Z,11.83
2023-02-24T13:18:01.780Z,9.77
2023-02-24T13:21:11.071Z,8.50
2023-02-24T13:24:24.224Z,13.83
2023-02-24T13:27:28.799Z,11.33
2023-02-24T13:30:33.649Z,11.90
2023-02-24T13:33:39.305Z,8.50
2023-02-24T13:36:49.515Z,9.77
2023-02-24T13:39:52.096Z,10.77
2023-02-24T13:43:00.039Z,8.77
2023-02-24T13:46:04.951Z,10.63
2023-02-24T13:49:45.066Z,9.40
2023-02-24T13:53:12.214Z,9.37
2023-02-24T13:56:46.562Z,8.97
2023-02-24T14:00:13.451Z,13.83
2023-02-24T14:03:25.776Z,9.73
2023-02-24T14:06:28.105Z,10.80
2023-02-24T14:09:35.572Z,9.93
2023-02-24T14:12:37.768Z,9.87
2023-02-24T14:15:42.750Z,8.03
2023-02-24T14:18:53.309Z,10.70
2023-02-24T14:22:00.441Z,9.10
2023-02-24T14:25:03.990Z,10.17
2023-02-24T14:28:06.756Z,10.60
2023-02-24T14:31:11.339Z,9.33
2023-02-24T14:34:18.095Z,12.00
2023-02-24T14:37:26.358Z,9.03
2023-02-24T14:40:28.635Z,9.10
2023-02-24T14:43:31.053Z,10.60
2023-02-24T14:46:33.024Z,11.37
2023-02-24T14:49:35.858Z,10.03
2023-02-24T14:53:01.600Z,7.83
2023-02-24T14:56:06.184Z,7.77
2023-02-24T14:59:17.034Z,15.83
2023-02-24T15:02:22.202Z,13.77
2023-02-24T15:05:24.988Z,9.83
2023-02-24T15:08:37.610Z,9.27
2023-02-24T15:11:41.221Z,10.83
2023-02-24T15:14:50.609Z,8.07
2023-02-24T15:17:59.464Z,11.60
2023-02-24T15:21:05.787Z,9.57
2023-02-24T15:24:22.788Z,8.27
2023-02-24T15:27:27.801Z,12.00
2023-02-24T15:30:39.294Z,10.53
2023-02-24T15:33:46.710Z,12.10
2023-02-24T15:36:51.733Z,10.13
2023-02-24T15:40:04.020Z,10.67
2023-02-24T15:43:12.690Z,9.93
2023-02-24T15:46:30.205Z,16.03
2023-02-24T15:49:32.790Z,11.07
2023-02-24T15:52:36.202Z,6.43
2023-02-24T15:55:43.782Z,7.43
2023-02-24T15:58:45.808Z,9.87
2023-02-24T16:01:48.135Z,13.50
2023-02-24T16:04:52.521Z,11.67
2023-02-24T16:07:55.178Z,9.73
2023-02-24T16:10:57.716Z,12.10
2023-02-24T16:14:00.742Z,11.60
2023-02-24T16:17:09.329Z,11.87
2023-02-24T16:20:29.276Z,13.90
2023-02-24T16:23:42.730Z,7.53
2023-02-24T16:26:44.997Z,10.60
2023-02-24T16:29:47.666Z,6.47
2023-02-24T16:32:49.986Z,10.13
2023-02-24T16:35:55.199Z,9.20
2023-02-24T16:38:57.912Z,7.67
2023-02-24T16:42:00.158Z,8.67
2023-02-24T16:45:02.012Z,8.50
2023-02-24T16:48:10.058Z,10.90
2023-02-24T16:51:12.164Z,12.83
2023-02-24T16:54:14.153Z,8.23
2023-02-24T16:57:16.623Z,7.57
2023-02-24T17:00:23.934Z,7.17
2023-02-24T17:03:31.356Z,6.00
2023-02-24T17:06:33.943Z,7.00
2023-02-24T17:09:36.089Z,8.63
2023-02-24T17:12:38.490Z,7.00
2023-02-24T17:15:40.666Z,9.27
2023-02-24T17:18:42.859Z,6.87
2023-02-24T17:21:45.396Z,8.03
2023-02-24T17:24:47.286Z,8.77
2023-02-24T17:27:53.052Z,6.57
2023-02-24T17:30:55.336Z,8.63
2023-02-24T17:34:07.260Z,9.30
2023-02-24T17:37:10.789Z,7.60
2023-02-24T17:40:13.613Z,5.80
2023-02-24T17:43:16.107Z,8.80
2023-02-24T17:46:18.381Z,10.50
2023-02-24T17:49:21.284Z,13.67
2023-02-24T17:52:24.212Z,7.60
2023-02-24T17:55:26.181Z,10.90
2023-02-24T17:58:28.296Z,12.30
2023-02-24T18:01:30.281Z,11.27
2023-02-24T18:04:32.928Z,9.33
2023-02-24T18:07:34.906Z,7.30
2023-02-24T18:10:37.525Z,5.87
2023-02-24T18:13:39.410Z,10.80
2023-02-24T18:16:41.562Z,8.23
2023-02-24T18:19:43.644Z,9.47
2023-02-24T18:22:45.577Z,12.57
2023-02-24T18:25:47.687Z,7.37
2023-02-24T18:28:52.318Z,6.93
2023-02-24T18:31:54.847Z,10.57
2023-02-24T18:34:56.771Z,15.73
2023-02-24T18:37:59.584Z,16.73
2023-02-24T18:41:03.369Z,10.93
2023-02-24T18:44:05.604Z,8.70
2023-02-24T18:47:09.978Z,15.33
2023-02-24T18:50:13.659Z,15.93
2023-02-24T18:53:15.616Z,9.97
2023-02-24T18:56:23.790Z,14.37
2023-02-24T18:59:25.879Z,7.10
2023-02-24T19:02:27.847Z,11.40
2023-02-24T19:05:37.993Z,8.60
2023-02-24T19:08:41.795Z,7.40
2023-02-24T19:11:45.819Z,8.97
2023-02-24T19:14:53.069Z,8.27
2023-02-24T19:17:58.043Z,9.27
2023-02-24T19:21:00.414Z,9.80
2023-02-24T19:24:04.016Z,9.90
2023-02-24T19:27:05.993Z,15.00
2023-02-24T19:30:09.268Z,17.87
2023-02-24T19:38:25.699Z,15.30
2023-02-24T19:41:28.148Z,16.40
2023-02-24T19:44:30.034Z,13.97
2023-02-24T19:47:34.359Z,18.27
2023-02-24T19:50:39.540Z,26.80
2023-02-24T19:53:42.032Z,20.93
2023-02-24T19:56:44.808Z,16.27
2023-02-24T19:59:46.643Z,18.00
2023-02-24T20:02:49.734Z,20.43
2023-02-24T20:05:51.544Z,15.83
2023-02-24T20:08:54.763Z,22.23
2023-02-24T20:11:59.434Z,17.10
2023-02-24T20:15:01.840Z,15.70
2023-02-24T20:18:09.046Z,16.47
2023-02-24T20:21:12.664Z,8.87
2023-02-24T20:24:16.280Z,8.50
2023-02-24T20:27:19.246Z,8.43
2023-02-24T20:30:21.246Z,5.23
2023-02-24T20:33:23.705Z,4.60
2023-02-24T20:36:28.316Z,5.90
2023-02-24T20:39:32.693Z,5.30
2023-02-24T20:42:34.538Z,6.47
2023-02-24T20:45:38.650Z,4.93
2023-02-24T20:48:40.588Z,3.57
2023-02-24T20:51:43.430Z,6.60
2023-02-24T20:54:45.968Z,2.67
2023-02-24T20:57:49.794Z,4.27
2023-02-24T21:00:51.596Z,5.23
2023-02-24T21:03:53.605Z,5.53
2023-02-24T21:06:55.584Z,5.53
2023-02-24T21:09:57.745Z,4.00
2023-02-24T21:12:59.661Z,6.43
2023-02-24T21:16:02.926Z,5.67
2023-02-24T21:19:07.143Z,2.87
2023-02-24T21:22:10.729Z,4.70
2023-02-24T21:25:12.786Z,5.73
2023-02-24T21:28:15.390Z,3.07
2023-02-24T21:31:20.492Z,4.20
2023-02-24T21:34:22.919Z,2.77
2023-02-24T21:37:25.290Z,3.43
2023-02-24T21:40:27.339Z,3.13
2023-02-24T21:43:29.539Z,4.53
2023-02-24T21:46:32.134Z,2.77
2023-02-24T21:49:34.741Z,4.87
2023-02-24T21:52:36.677Z,3.70
2023-02-24T21:55:39.164Z,3.53
2023-02-24T21:58:41.689Z,4.23
2023-02-24T22:01:45.034Z,2.07
2023-02-24T22:04:47.036Z,4.03
2023-02-24T22:07:49.637Z,4.40
2023-02-24T22:11:01.426Z,1.70
2023-02-24T22:14:04.376Z,2.50
2023-02-24T22:17:06.678Z,3.53
2023-02-24T22:20:13.542Z,5.03
2023-02-24T22:23:15.945Z,4.03
2023-02-24T22:26:18.712Z,3.37
2023-02-24T22:29:59.299Z,2.60
2023-02-24T22:33:05.657Z,2.20
2023-02-24T22:36:19.754Z,3.03
2023-02-24T22:39:48.158Z,2.07
2023-02-24T22:43:10.401Z,1.20
2023-02-24T22:46:21.594Z,2.67
2023-02-24T22:49:23.899Z,3.60
2023-02-24T22:52:26.919Z,2.73
2023-02-24T22:55:29.936Z,3.00
2023-02-24T22:58:32.643Z,2.63
2023-02-24T23:01:36.635Z,3.47
2023-02-24T23:04:39.155Z,2.20
2023-02-24T23:07:41.509Z,6.23
2023-02-24T23:10:43.431Z,3.43
2023-02-24T23:13:47.788Z,2.97
2023-02-24T23:16:55.709Z,4.43
2023-02-24T23:19:58.872Z,2.57
2023-02-24T23:23:02.124Z,2.73
2023-02-24T23:26:04.929Z,2.83
2023-02-24T23:29:07.755Z,2.53
2023-02-24T23:32:09.703Z,2.47
2023-02-24T23:35:12.230Z,1.83
2023-02-24T23:38:14.290Z,2.10
2023-02-24T23:41:17.193Z,0.30
2023-02-24T23:44:19.089Z,0.70
2023-02-24T23:47:21.120Z,1.00
2023-02-24T23:50:23.860Z,0.50
2023-02-24T23:53:25.840Z,0.30
2023-02-24T23:56:28.167Z,0.50
2023-02-24T23:59:30.150Z,0.17
